首页
METAR-TAF:

METAR-TAF

机场 :

图森, 亞利桑那州, 美国

纬度: 32-07-53N, 经度: 110-57-19W, 海拔: 805米

当前天气观测

该预报发布于38分钟前的16:53 UTC
风速20节,风向东南,有时为30节阵风
温度 18°C
湿度 30%
气压 1021 hPa
能見度: 16.1公里
天空无云

METAR: KTUS 201653Z 13020G30KT 10SM CLR 18/00 A3016 RMK AO2 PK WND 13031/1638 SLP188 T01830000

时间: 10:31 (17:31 UTC)

预报

该预报发布于3小时和51分钟前的13:40 UTC
预报有效从20日的 14点(UTC)到 21日的 12点(UTC)
风速20节,风向东南,有时为27节阵风
能見度: 10公里
天空无云
从 20日的 1500点(UTC)
风速18节,风向东南,有时为26节阵风
能見度: 10公里
多云层高于25000英尺
从 20日的 2100点(UTC)
风速10节,风向
能見度: 10公里
阴天层高于20000英尺
从 21日的 0200点(UTC)
风速5节,风向南转南东
能見度: 10公里
多云层高于15000英尺
阴天层高于20000英尺

TAF: KTUS 201340Z 2014/2112 13020G27KT P6SM SKC FM201500 13018G26KT P6SM BKN250 FM202100 10010KT P6SM OVC200 FM210200 16005KT P6SM BKN150 OVC200

超过4000个机场的气象观测和天气预报(METAR&TAF报告)。

可查询的气象台以黄色和红色小点在地图上表示。

将鼠标移到小点上方,可查看气象台名称。

然后点击查看天气观测和预报。

如需切换地图:点击带黑十字的绿色按钮放大地图;点击带横线的绿色按钮缩小地图;或者点击绿色箭头查看邻近地区的地图。


METAR-TAF: